createdAt,value
2019-03-29T00:00:08.658Z,1035.0202
2019-03-29T00:00:20.451Z,1034.9941
2019-03-29T00:00:32.561Z,1035.0434
2019-03-29T00:00:44.052Z,1035.05
2019-03-29T00:00:55.852Z,1035.035
2019-03-29T00:01:07.688Z,1035.0219
2019-03-29T00:01:19.492Z,1035.0172
2019-03-29T00:01:31.297Z,1035.0318
2019-03-29T00:01:43.090Z,1035.0169
2019-03-29T00:01:54.882Z,1035.0004
2019-03-29T00:02:06.682Z,1034.9858
2019-03-29T00:02:18.483Z,1035.0152
2019-03-29T00:02:30.287Z,1035.007
2019-03-29T00:02:42.894Z,1035.0073
2019-03-29T00:02:53.878Z,1034.9957
2019-03-29T00:03:05.677Z,1034.9855
2019-03-29T00:03:17.475Z,1034.9906
2019-03-29T00:03:29.257Z,1035.0086
2019-03-29T00:03:41.064Z,1035.0136
2019-03-29T00:03:52.860Z,1035.0202
2019-03-29T00:04:04.660Z,1035.0169
2019-03-29T00:04:16.466Z,1035.0351
2019-03-29T00:04:28.266Z,1035.0185
2019-03-29T00:04:40.064Z,1035.0335
2019-03-29T00:04:52.249Z,1035.0104
2019-03-29T00:05:04.659Z,1035.0335
2019-03-29T00:05:16.452Z,1035.03
2019-03-29T00:05:28.241Z,1035.017
2019-03-29T00:05:40.050Z,1035.0185
2019-03-29T00:05:51.853Z,1035.0118
2019-03-29T00:06:03.704Z,1035.0052
2019-03-29T00:06:15.499Z,1034.9956
2019-03-29T00:06:27.290Z,1034.9823
2019-03-29T00:06:39.111Z,1035.0002
2019-03-29T00:06:50.912Z,1034.989
2019-03-29T00:07:03.940Z,1034.9921
2019-03-29T00:07:15.506Z,1034.9624
2019-03-29T00:07:38.804Z,1034.9725
2019-03-29T00:07:41.724Z,1034.984
2019-03-29T00:07:52.837Z,1034.966
2019-03-29T00:08:04.645Z,1034.9792
2019-03-29T00:08:16.452Z,1034.9921
2019-03-29T00:08:28.229Z,1034.9331
2019-03-29T00:08:40.030Z,1034.9693
2019-03-29T00:08:51.852Z,1034.9544
2019-03-29T00:09:03.630Z,1034.953
2019-03-29T00:09:15.433Z,1034.9432
2019-03-29T00:09:27.852Z,1034.9478
2019-03-29T00:09:40.007Z,1034.9495
2019-03-29T00:09:51.805Z,1034.9479
2019-03-29T00:10:03.594Z,1034.9694
2019-03-29T00:10:15.392Z,1034.8902
2019-03-29T00:10:27.195Z,1034.8902
2019-03-29T00:10:38.986Z,1034.9399
2019-03-29T00:10:50.776Z,1034.9512
2019-03-29T00:11:02.592Z,1034.9167
2019-03-29T00:11:14.397Z,1034.9432
2019-03-29T00:11:27.183Z,1034.9431
2019-03-29T00:11:39.165Z,1034.92
2019-03-29T00:11:50.788Z,1034.9051
2019-03-29T00:12:02.585Z,1034.9051
2019-03-29T00:12:14.377Z,1034.9362
2019-03-29T00:12:26.178Z,1034.9101
2019-03-29T00:12:37.983Z,1034.925
2019-03-29T00:12:49.790Z,1034.9299
2019-03-29T00:13:01.585Z,1034.9134
2019-03-29T00:13:14.684Z,1034.9233
2019-03-29T00:13:26.155Z,1034.8905
2019-03-29T00:13:38.005Z,1034.8972
2019-03-29T00:13:50.013Z,1034.8643
2019-03-29T00:14:01.599Z,1034.8856
2019-03-29T00:14:13.393Z,1034.8806
2019-03-29T00:14:25.171Z,1034.8988
2019-03-29T00:14:36.967Z,1034.9006
2019-03-29T00:14:48.766Z,1034.8874
2019-03-29T00:15:00.565Z,1034.9102
2019-03-29T00:15:12.365Z,1034.8889
2019-03-29T00:15:24.160Z,1034.899
2019-03-29T00:15:35.965Z,1034.8857
2019-03-29T00:15:47.757Z,1034.9021
2019-03-29T00:16:00.052Z,1034.8842
2019-03-29T00:16:11.355Z,1034.9023
2019-03-29T00:16:23.157Z,1034.9053
2019-03-29T00:16:34.957Z,1034.869
2019-03-29T00:16:46.754Z,1034.8396
2019-03-29T00:16:58.544Z,1034.8773
2019-03-29T00:17:10.340Z,1034.8459
2019-03-29T00:17:22.156Z,1034.8676
2019-03-29T00:17:33.940Z,1034.8592
2019-03-29T00:17:45.735Z,1034.8693
2019-03-29T00:17:57.526Z,1034.8494
2019-03-29T00:18:09.919Z,1034.8525
2019-03-29T00:18:21.118Z,1034.833
2019-03-29T00:18:32.948Z,1034.8759
2019-03-29T00:18:44.745Z,1034.8839
2019-03-29T00:18:56.541Z,1034.8497
2019-03-29T00:19:08.343Z,1034.8217
2019-03-29T00:19:20.129Z,1034.8066
2019-03-29T00:19:31.924Z,1034.8398
2019-03-29T00:19:43.707Z,1034.8446
2019-03-29T00:19:55.508Z,1034.8184
2019-03-29T00:20:07.295Z,1034.7919
2019-03-29T00:20:19.449Z,1034.8234
2019-03-29T00:20:31.886Z,1034.7952
2019-03-29T00:20:43.682Z,1034.7691
2019-03-29T00:20:55.482Z,1034.8514
2019-03-29T00:21:07.279Z,1034.774
2019-03-29T00:21:19.077Z,1034.7974
2019-03-29T00:21:30.880Z,1034.7873
2019-03-29T00:21:42.678Z,1034.7823
2019-03-29T00:21:54.463Z,1034.7806
2019-03-29T00:22:06.258Z,1034.7757
2019-03-29T00:22:18.053Z,1034.7773
2019-03-29T00:22:30.316Z,1034.7691
2019-03-29T00:22:42.626Z,1034.7364
2019-03-29T00:22:54.424Z,1034.8037
2019-03-29T00:23:06.213Z,1034.7824
2019-03-29T00:23:18.005Z,1034.7495
2019-03-29T00:23:29.829Z,1034.7512
2019-03-29T00:23:41.629Z,1034.7824
2019-03-29T00:24:06.098Z,1034.7446
2019-03-29T00:24:07.278Z,1034.7183
2019-03-29T00:24:18.957Z,1034.7038
2019-03-29T00:24:30.751Z,1034.738
2019-03-29T00:24:42.554Z,1034.7626
2019-03-29T00:24:54.352Z,1034.7464
2019-03-29T00:25:07.002Z,1034.7183
2019-03-29T00:25:18.931Z,1034.7053
2019-03-29T00:25:30.724Z,1034.7149
2019-03-29T00:25:42.512Z,1034.7348
2019-03-29T00:25:54.307Z,1034.7498
2019-03-29T00:26:06.100Z,1034.7269
2019-03-29T00:26:17.902Z,1034.7269
2019-03-29T00:26:36.183Z,1034.7384
2019-03-29T00:26:47.974Z,1034.7484
2019-03-29T00:26:59.764Z,1034.758
2019-03-29T00:27:11.559Z,1034.7846
2019-03-29T00:27:23.351Z,1034.712
2019-03-29T00:27:35.145Z,1034.755
2019-03-29T00:27:46.941Z,1034.7319
2019-03-29T00:27:58.745Z,1034.7087
2019-03-29T00:28:11.075Z,1034.7434
2019-03-29T00:28:22.331Z,1034.7595
2019-03-29T00:28:34.235Z,1034.7286
2019-03-29T00:28:45.962Z,1034.7351
2019-03-29T00:28:57.752Z,1034.7005
2019-03-29T00:29:09.546Z,1034.7021
2019-03-29T00:29:21.343Z,1034.6972
2019-03-29T00:29:34.119Z,1034.7613
2019-03-29T00:29:45.917Z,1034.7335
2019-03-29T00:29:57.711Z,1034.75
2019-03-29T00:30:09.509Z,1034.6907
2019-03-29T00:30:21.387Z,1034.6859
2019-03-29T00:30:33.130Z,1034.7238
2019-03-29T00:30:44.932Z,1034.7319
2019-03-29T00:30:56.731Z,1034.699
2019-03-29T00:31:08.529Z,1034.7456
2019-03-29T00:31:20.321Z,1034.7021
2019-03-29T00:31:32.119Z,1034.732
2019-03-29T00:31:43.919Z,1034.6943
2019-03-29T00:31:55.710Z,1034.6925
2019-03-29T00:32:07.502Z,1034.6894
2019-03-29T00:32:19.300Z,1034.6943
2019-03-29T00:32:31.228Z,1034.7254
2019-03-29T00:32:42.901Z,1034.7092
2019-03-29T00:32:54.695Z,1034.6977
2019-03-29T00:33:06.506Z,1034.7109
2019-03-29T00:33:18.309Z,1034.6759
2019-03-29T00:33:30.102Z,1034.6679
2019-03-29T00:33:41.910Z,1034.701
2019-03-29T00:33:53.757Z,1034.6943
2019-03-29T00:34:05.551Z,1034.6318
2019-03-29T00:34:18.339Z,1034.7092
2019-03-29T00:34:30.142Z,1034.6416
2019-03-29T00:34:42.050Z,1034.6629
2019-03-29T00:34:53.745Z,1034.6435
2019-03-29T00:35:05.548Z,1034.655
2019-03-29T00:35:17.337Z,1034.6665
2019-03-29T00:35:29.126Z,1034.6318
2019-03-29T00:35:40.922Z,1034.6896
2019-03-29T00:35:52.713Z,1034.6865
2019-03-29T00:36:04.519Z,1034.6633
2019-03-29T00:36:16.313Z,1034.637
2019-03-29T00:36:28.104Z,1034.6583
2019-03-29T00:36:39.905Z,1034.6846
2019-03-29T00:36:52.000Z,1034.6879
2019-03-29T00:37:03.501Z,1034.6778
2019-03-29T00:37:15.292Z,1034.6732
2019-03-29T00:37:27.080Z,1034.6533
2019-03-29T00:37:52.454Z,1034.6403
2019-03-29T00:37:53.622Z,1034.6533
2019-03-29T00:38:04.402Z,1034.6616
2019-03-29T00:38:16.200Z,1034.6175
2019-03-29T00:38:27.984Z,1034.6485
2019-03-29T00:38:39.780Z,1034.6269
2019-03-29T00:38:52.591Z,1034.6469
2019-03-29T00:39:04.397Z,1034.6304
2019-03-29T00:39:16.185Z,1034.6304
2019-03-29T00:39:28.012Z,1034.5925
2019-03-29T00:39:40.300Z,1034.6518
2019-03-29T00:39:52.668Z,1034.6485
2019-03-29T00:40:04.453Z,1034.5894
2019-03-29T00:40:16.257Z,1034.5827
2019-03-29T00:40:28.051Z,1034.6059
2019-03-29T00:40:39.846Z,1034.5748
2019-03-29T00:40:51.643Z,1034.6109
2019-03-29T00:41:03.448Z,1034.5748
2019-03-29T00:41:15.228Z,1034.5632
2019-03-29T00:41:27.044Z,1034.593
2019-03-29T00:41:38.843Z,1034.6046
2019-03-29T00:41:50.957Z,1034.6062
2019-03-29T00:42:02.452Z,1034.5715
2019-03-29T00:42:14.244Z,1034.5913
2019-03-29T00:42:26.051Z,1034.5798
2019-03-29T00:42:37.853Z,1034.6094
2019-03-29T00:42:49.643Z,1034.6226
2019-03-29T00:43:01.447Z,1034.5715
2019-03-29T00:43:13.253Z,1034.6026
2019-03-29T00:43:25.047Z,1034.5914
2019-03-29T00:43:36.850Z,1034.616
2019-03-29T00:43:48.646Z,1034.557
2019-03-29T00:44:01.078Z,1034.5816
2019-03-29T00:44:12.238Z,1034.6097
2019-03-29T00:44:24.049Z,1034.5882
2019-03-29T00:44:35.846Z,1034.6048
2019-03-29T00:44:47.694Z,1034.6259
2019-03-29T00:44:59.498Z,1034.6047
2019-03-29T00:45:11.296Z,1034.5651
2019-03-29T00:45:23.092Z,1034.5668
2019-03-29T00:45:34.889Z,1034.55
2019-03-29T00:45:46.675Z,1034.5452
2019-03-29T00:45:58.478Z,1034.5371
2019-03-29T00:46:10.381Z,1034.5402
2019-03-29T00:46:22.075Z,1034.5712
2019-03-29T00:46:33.860Z,1034.5467
2019-03-29T00:46:45.659Z,1034.5256
2019-03-29T00:46:57.458Z,1034.5665
2019-03-29T00:47:09.240Z,1034.5664
2019-03-29T00:47:21.037Z,1034.5289
2019-03-29T00:47:32.829Z,1034.5372
2019-03-29T00:47:44.627Z,1034.5389
2019-03-29T00:47:56.422Z,1034.5289
2019-03-29T00:48:08.216Z,1034.5798
2019-03-29T00:48:20.017Z,1034.5679
2019-03-29T00:48:31.816Z,1034.5405
2019-03-29T00:48:43.607Z,1034.5373
2019-03-29T00:48:55.396Z,1034.55
2019-03-29T00:49:07.187Z,1034.5289
2019-03-29T00:49:18.996Z,1034.5371
2019-03-29T00:49:30.794Z,1034.5749
2019-03-29T00:49:42.615Z,1034.5487
2019-03-29T00:49:54.408Z,1034.5323
2019-03-29T00:50:06.920Z,1034.5472
2019-03-29T00:50:17.996Z,1034.5291
2019-03-29T00:50:29.846Z,1034.4862
2019-03-29T00:50:41.640Z,1034.5222
2019-03-29T00:50:53.439Z,1034.529
2019-03-29T00:51:05.234Z,1034.5406
2019-03-29T00:51:17.035Z,1034.5141
2019-03-29T00:51:28.824Z,1034.5129
2019-03-29T00:51:40.615Z,1034.5191
2019-03-29T00:51:52.409Z,1034.5274
2019-03-29T00:52:04.214Z,1034.5621
2019-03-29T00:52:16.239Z,1034.5079
2019-03-29T00:52:27.811Z,1034.5076
2019-03-29T00:52:39.599Z,1034.5061
2019-03-29T00:52:51.401Z,1034.473
2019-03-29T00:53:03.192Z,1034.4603
2019-03-29T00:53:14.995Z,1034.4699
2019-03-29T00:53:26.794Z,1034.5141
2019-03-29T00:53:38.593Z,1034.4619
2019-03-29T00:53:50.402Z,1034.5045
2019-03-29T00:54:02.322Z,1034.5062
2019-03-29T00:54:13.999Z,1034.4851
2019-03-29T00:54:25.793Z,1034.4982
2019-03-29T00:54:37.590Z,1034.4801
2019-03-29T00:54:49.381Z,1034.5064
2019-03-29T00:55:01.177Z,1034.4588
2019-03-29T00:55:12.980Z,1034.4718
2019-03-29T00:55:24.808Z,1034.4753
2019-03-29T00:55:36.609Z,1034.4473
2019-03-29T00:55:48.414Z,1034.4652
2019-03-29T00:56:00.209Z,1034.4669
2019-03-29T00:56:12.923Z,1034.4555
2019-03-29T00:56:24.787Z,1034.4013
2019-03-29T00:56:36.581Z,1034.4291
2019-03-29T00:56:48.371Z,1034.4733
2019-03-29T00:57:00.180Z,1034.4624
2019-03-29T00:57:12.004Z,1034.4373
2019-03-29T00:57:23.799Z,1034.4654
2019-03-29T00:57:35.601Z,1034.4506
2019-03-29T00:57:47.397Z,1034.4571
2019-03-29T00:57:59.197Z,1034.4293
2019-03-29T00:58:10.996Z,1034.4541
2019-03-29T00:58:22.977Z,1034.3963
2019-03-29T00:58:34.606Z,1034.4062
2019-03-29T00:58:46.396Z,1034.4439
2019-03-29T00:58:58.181Z,1034.4293
2019-03-29T00:59:09.974Z,1034.4178
2019-03-29T00:59:21.803Z,1034.4163
2019-03-29T00:59:33.591Z,1034.4492
2019-03-29T00:59:45.386Z,1034.4522
2019-03-29T00:59:57.174Z,1034.4311
2019-03-29T01:00:08.969Z,1034.4362
2019-03-29T01:00:20.770Z,1034.4475
2019-03-29T01:00:33.629Z,1034.4456
2019-03-29T01:00:45.342Z,1034.4213
2019-03-29T01:00:57.140Z,1034.4343
2019-03-29T01:01:08.941Z,1034.4442
2019-03-29T01:01:20.737Z,1034.4211
2019-03-29T01:01:32.538Z,1034.4459
2019-03-29T01:01:44.327Z,1034.4362
2019-03-29T01:01:56.126Z,1034.4228
2019-03-29T01:02:07.952Z,1034.3917
2019-03-29T01:02:19.745Z,1034.4046
2019-03-29T01:02:31.553Z,1034.3785
2019-03-29T01:02:44.178Z,1034.3654
2019-03-29T01:02:56.145Z,1034.3737
2019-03-29T01:03:07.940Z,1034.3933
2019-03-29T01:03:19.739Z,1034.3963
2019-03-29T01:03:31.550Z,1034.3342
2019-03-29T01:03:43.338Z,1034.3425
2019-03-29T01:03:55.133Z,1034.3818
2019-03-29T01:04:06.915Z,1034.3818
2019-03-29T01:04:18.708Z,1034.321
2019-03-29T01:04:30.510Z,1034.3638
2019-03-29T01:04:42.304Z,1034.336
2019-03-29T01:04:54.281Z,1034.341
2019-03-29T01:05:05.898Z,1034.321
2019-03-29T01:05:17.704Z,1034.354
2019-03-29T01:05:29.502Z,1034.367
2019-03-29T01:05:41.297Z,1034.3831
2019-03-29T01:05:53.095Z,1034.362
2019-03-29T01:06:04.893Z,1034.3193
2019-03-29T01:06:16.685Z,1034.3504
2019-03-29T01:06:28.476Z,1034.3569
2019-03-29T01:06:40.264Z,1034.3453
2019-03-29T01:06:52.084Z,1034.354
2019-03-29T01:07:04.223Z,1034.3551
2019-03-29T01:07:16.682Z,1034.3835
2019-03-29T01:07:28.505Z,1034.3717
2019-03-29T01:07:40.297Z,1034.3569
2019-03-29T01:07:52.100Z,1034.3238
2019-03-29T01:08:07.954Z,1034.3551
2019-03-29T01:08:16.631Z,1034.3486
2019-03-29T01:08:28.437Z,1034.3387
2019-03-29T01:08:40.238Z,1034.3846
2019-03-29T01:08:52.035Z,1034.3516
2019-03-29T01:09:04.277Z,1034.3253
2019-03-29T01:09:16.630Z,1034.3516
2019-03-29T01:09:28.429Z,1034.2908
2019-03-29T01:09:40.203Z,1034.3679
2019-03-29T01:09:52.001Z,1034.3448
2019-03-29T01:10:03.803Z,1034.3547
2019-03-29T01:10:15.601Z,1034.3399
2019-03-29T01:10:27.400Z,1034.3365
2019-03-29T01:10:39.206Z,1034.338
2019-03-29T01:10:51.006Z,1034.3514
2019-03-29T01:11:02.797Z,1034.3187
2019-03-29T01:11:14.932Z,1034.2739
2019-03-29T01:11:26.388Z,1034.3101
2019-03-29T01:11:38.204Z,1034.3168
2019-03-29T01:11:50.000Z,1034.2888
2019-03-29T01:12:01.802Z,1034.3165
2019-03-29T01:12:13.599Z,1034.3165
2019-03-29T01:12:25.441Z,1034.2919
2019-03-29T01:12:37.227Z,1034.2987
2019-03-29T01:12:49.026Z,1034.2937
2019-03-29T01:13:00.827Z,1034.3052
2019-03-29T01:13:12.621Z,1034.2918
2019-03-29T01:13:24.918Z,1034.3229
2019-03-29T01:13:36.212Z,1034.2509
2019-03-29T01:13:48.020Z,1034.2624
2019-03-29T01:13:59.825Z,1034.2718
2019-03-29T01:14:11.621Z,1034.2769
2019-03-29T01:14:23.410Z,1034.267
2019-03-29T01:14:35.209Z,1034.2622
2019-03-29T01:14:47.003Z,1034.2834
2019-03-29T01:14:58.808Z,1034.2915
2019-03-29T01:15:10.607Z,1034.2341
2019-03-29T01:15:22.417Z,1034.2718
2019-03-29T01:15:34.215Z,1034.2866
2019-03-29T01:15:46.018Z,1034.2814
2019-03-29T01:15:57.815Z,1034.257
2019-03-29T01:16:09.619Z,1034.293
2019-03-29T01:16:21.414Z,1034.2585
2019-03-29T01:16:33.212Z,1034.2485
2019-03-29T01:16:45.011Z,1034.2503
2019-03-29T01:16:56.798Z,1034.2779
2019-03-29T01:17:08.592Z,1034.2452
2019-03-29T01:17:20.391Z,1034.2749
2019-03-29T01:17:32.240Z,1034.2485
2019-03-29T01:17:44.037Z,1034.2779
2019-03-29T01:17:55.830Z,1034.227
2019-03-29T01:18:07.628Z,1034.262
2019-03-29T01:18:19.415Z,1034.2468
2019-03-29T01:18:31.208Z,1034.2485
2019-03-29T01:18:43.001Z,1034.2386
2019-03-29T01:18:54.798Z,1034.2386
2019-03-29T01:19:06.588Z,1034.2386
2019-03-29T01:19:18.442Z,1034.2581
2019-03-29T01:19:30.239Z,1034.2535
2019-03-29T01:19:42.031Z,1034.2515
2019-03-29T01:19:53.833Z,1034.2188
2019-03-29T01:20:05.628Z,1034.2333
2019-03-29T01:20:17.424Z,1034.2615
2019-03-29T01:20:29.220Z,1034.2219
2019-03-29T01:20:41.038Z,1034.2532
2019-03-29T01:20:52.794Z,1034.2219
2019-03-29T01:21:04.595Z,1034.2137
2019-03-29T01:21:16.396Z,1034.2713
2019-03-29T01:21:28.192Z,1034.2447
2019-03-29T01:21:40.006Z,1034.2529
2019-03-29T01:21:51.796Z,1034.2116
2019-03-29T01:22:03.589Z,1034.2414
2019-03-29T01:22:15.381Z,1034.2186
2019-03-29T01:22:27.182Z,1034.2282
2019-03-29T01:22:38.978Z,1034.2183
2019-03-29T01:22:50.777Z,1034.2381
2019-03-29T01:23:02.578Z,1034.2298
2019-03-29T01:23:14.363Z,1034.2166
2019-03-29T01:23:26.157Z,1034.2183
2019-03-29T01:23:37.969Z,1034.2232
2019-03-29T01:23:49.989Z,1034.2199
2019-03-29T01:24:01.557Z,1034.1772
2019-03-29T01:24:13.350Z,1034.2216
2019-03-29T01:24:25.165Z,1034.187
2019-03-29T01:24:36.962Z,1034.2102
2019-03-29T01:24:48.755Z,1034.187
2019-03-29T01:25:00.549Z,1034.187
2019-03-29T01:25:12.352Z,1034.1953
2019-03-29T01:25:24.145Z,1034.2019
2019-03-29T01:25:35.938Z,1034.1656
2019-03-29T01:25:47.735Z,1034.1788
2019-03-29T01:26:00.932Z,1034.1589
2019-03-29T01:26:12.327Z,1034.1937
2019-03-29T01:26:24.127Z,1034.2099
2019-03-29T01:26:35.925Z,1034.1986
2019-03-29T01:26:48.713Z,1034.1772
2019-03-29T01:27:00.508Z,1034.2104
2019-03-29T01:27:12.324Z,1034.215
2019-03-29T01:27:24.089Z,1034.1834
2019-03-29T01:27:35.886Z,1034.1658
2019-03-29T01:27:47.683Z,1034.1573
2019-03-29T01:27:59.486Z,1034.1639
2019-03-29T01:28:12.044Z,1034.1754
2019-03-29T01:28:24.083Z,1034.187
2019-03-29T01:28:35.881Z,1034.1378
2019-03-29T01:28:47.699Z,1034.1424
2019-03-29T01:28:59.508Z,1034.129
2019-03-29T01:29:11.361Z,1034.1491
2019-03-29T01:29:23.155Z,1034.175
2019-03-29T01:29:35.935Z,1034.1639
2019-03-29T01:29:47.735Z,1034.1673
2019-03-29T01:29:59.543Z,1034.1788
2019-03-29T01:30:11.340Z,1034.1507
2019-03-29T01:30:23.235Z,1034.1785
2019-03-29T01:30:34.923Z,1034.1982
2019-03-29T01:30:46.707Z,1034.1656
2019-03-29T01:30:58.498Z,1034.1572
2019-03-29T01:31:10.290Z,1034.192
2019-03-29T01:31:22.082Z,1034.1801
2019-03-29T01:31:33.879Z,1034.1854
2019-03-29T01:31:46.666Z,1034.1804
2019-03-29T01:31:58.460Z,1034.1542
2019-03-29T01:32:10.251Z,1034.1967
2019-03-29T01:32:22.058Z,1034.1508
2019-03-29T01:32:33.850Z,1034.1672
2019-03-29T01:32:45.649Z,1034.1589
2019-03-29T01:32:57.441Z,1034.1918
2019-03-29T01:33:09.235Z,1034.174
2019-03-29T01:33:21.039Z,1034.182
2019-03-29T01:33:32.839Z,1034.1707
2019-03-29T01:33:44.634Z,1034.1561
2019-03-29T01:33:56.432Z,1034.1278
2019-03-29T01:34:08.230Z,1034.1165
2019-03-29T01:34:20.041Z,1034.1413
2019-03-29T01:34:31.866Z,1034.1313
2019-03-29T01:34:43.653Z,1034.1479
2019-03-29T01:34:55.438Z,1034.1231
2019-03-29T01:35:07.232Z,1034.1496
2019-03-29T01:35:19.021Z,1034.1217
2019-03-29T01:35:30.812Z,1034.1116
2019-03-29T01:35:42.603Z,1034.1411
2019-03-29T01:35:54.390Z,1034.1234
2019-03-29T01:36:06.189Z,1034.1541
2019-03-29T01:36:17.978Z,1034.1331
2019-03-29T01:36:29.762Z,1034.1528
2019-03-29T01:36:41.559Z,1034.1545
2019-03-29T01:36:53.873Z,1034.1462
2019-03-29T01:37:05.151Z,1034.1608
2019-03-29T01:37:16.941Z,1034.1136
2019-03-29T01:37:28.736Z,1034.171
2019-03-29T01:37:40.536Z,1034.1561
2019-03-29T01:37:52.336Z,1034.1365
2019-03-29T01:38:04.141Z,1034.1396
2019-03-29T01:38:21.954Z,1034.1707
2019-03-29T01:38:28.665Z,1034.1281
2019-03-29T01:38:40.465Z,1034.1016
2019-03-29T01:38:52.259Z,1034.1512
2019-03-29T01:39:04.057Z,1034.1347
2019-03-29T01:39:16.279Z,1034.1232
2019-03-29T01:39:28.669Z,1034.1114
2019-03-29T01:39:40.464Z,1034.1624
2019-03-29T01:39:52.245Z,1034.1262
2019-03-29T01:40:04.040Z,1034.1264
2019-03-29T01:40:15.843Z,1034.1394
2019-03-29T01:40:27.641Z,1034.1378
2019-03-29T01:40:39.443Z,1034.1082
2019-03-29T01:40:51.244Z,1034.0887
2019-03-29T01:41:03.043Z,1034.0954
2019-03-29T01:41:14.836Z,1034.1003
2019-03-29T01:41:27.655Z,1034.1135
2019-03-29T01:41:39.455Z,1034.1086
2019-03-29T01:41:51.250Z,1034.153
2019-03-29T01:42:03.053Z,1034.1429
2019-03-29T01:42:14.847Z,1034.125
2019-03-29T01:42:26.647Z,1034.1546
2019-03-29T01:42:38.448Z,1034.1315
2019-03-29T01:42:50.239Z,1034.0972
2019-03-29T01:43:02.035Z,1034.1053
2019-03-29T01:43:13.831Z,1034.1335
2019-03-29T01:43:25.620Z,1034.117
2019-03-29T01:43:37.419Z,1034.1156
2019-03-29T01:43:49.217Z,1034.1616
2019-03-29T01:44:01.255Z,1034.1038
2019-03-29T01:44:13.798Z,1034.1387
2019-03-29T01:44:25.589Z,1034.1057
2019-03-29T01:44:37.381Z,1034.1401
2019-03-29T01:44:49.175Z,1034.142
2019-03-29T01:45:00.967Z,1034.1105
2019-03-29T01:45:12.756Z,1034.0992
2019-03-29T01:45:24.548Z,1034.1022
2019-03-29T01:45:36.338Z,1034.1483
2019-03-29T01:45:48.139Z,1034.1156
2019-03-29T01:45:59.937Z,1034.0777
2019-03-29T01:46:12.009Z,1034.1055
2019-03-29T01:46:23.553Z,1034.0856
2019-03-29T01:46:35.354Z,1034.1254
2019-03-29T01:46:47.139Z,1034.0646
2019-03-29T01:46:58.933Z,1034.0976
2019-03-29T01:47:10.729Z,1034.1271
2019-03-29T01:47:22.537Z,1034.1009
2019-03-29T01:47:34.337Z,1034.0732
2019-03-29T01:47:46.142Z,1034.0975
2019-03-29T01:47:57.939Z,1034.1274
2019-03-29T01:48:09.737Z,1034.1224
2019-03-29T01:48:22.367Z,1034.1489
2019-03-29T01:48:34.321Z,1034.1323
2019-03-29T01:48:46.120Z,1034.1243
2019-03-29T01:48:57.914Z,1034.0665
2019-03-29T01:49:09.704Z,1034.0913
2019-03-29T01:49:21.499Z,1034.0864
2019-03-29T01:49:33.299Z,1034.111
2019-03-29T01:49:45.092Z,1034.0994
2019-03-29T01:49:56.891Z,1034.0994
2019-03-29T01:50:08.707Z,1034.0994
2019-03-29T01:50:20.500Z,1034.1143
2019-03-29T01:50:32.299Z,1034.0913
2019-03-29T01:50:44.089Z,1034.1015
2019-03-29T01:50:55.889Z,1034.1176
2019-03-29T01:51:07.689Z,1034.093
2019-03-29T01:51:19.474Z,1034.0849
2019-03-29T01:51:31.319Z,1034.1047
2019-03-29T01:51:43.113Z,1034.1143
2019-03-29T01:51:54.908Z,1034.1324
2019-03-29T01:52:06.713Z,1034.1029
2019-03-29T01:52:19.286Z,1034.098
2019-03-29T01:52:31.616Z,1034.0831
2019-03-29T01:52:43.076Z,1034.1143
2019-03-29T01:52:54.880Z,1034.1276
2019-03-29T01:53:06.683Z,1034.144
2019-03-29T01:53:18.482Z,1034.1062
2019-03-29T01:53:30.287Z,1034.1391
2019-03-29T01:53:42.082Z,1034.1456
2019-03-29T01:53:53.883Z,1034.116
2019-03-29T01:54:05.688Z,1034.1226
2019-03-29T01:54:17.486Z,1034.1257
2019-03-29T01:54:29.404Z,1034.1339
2019-03-29T01:54:41.087Z,1034.1191
2019-03-29T01:54:52.881Z,1034.1518
2019-03-29T01:55:04.685Z,1034.1221
2019-03-29T01:55:16.486Z,1034.1075
2019-03-29T01:55:28.284Z,1034.1073
2019-03-29T01:55:40.083Z,1034.1237
2019-03-29T01:55:51.876Z,1034.104
2019-03-29T01:56:03.672Z,1034.0942
2019-03-29T01:56:15.465Z,1034.1173
2019-03-29T01:56:27.290Z,1034.0861
2019-03-29T01:56:39.084Z,1034.1221
2019-03-29T01:56:50.879Z,1034.1057
2019-03-29T01:57:02.674Z,1034.0976
2019-03-29T01:57:14.502Z,1034.1237
2019-03-29T01:57:26.298Z,1034.1304
2019-03-29T01:57:38.086Z,1034.1173
2019-03-29T01:57:49.881Z,1034.0958
2019-03-29T01:58:01.675Z,1034.0908
2019-03-29T01:58:13.466Z,1034.101
2019-03-29T01:58:25.433Z,1034.1142
2019-03-29T01:58:37.050Z,1034.1221
2019-03-29T01:58:48.842Z,1034.0976
2019-03-29T01:59:00.637Z,1034.1026
2019-03-29T01:59:12.434Z,1034.1225
2019-03-29T01:59:24.224Z,1034.0897
2019-03-29T01:59:36.037Z,1034.0585
2019-03-29T01:59:47.849Z,1034.0797
2019-03-29T02:00:00.634Z,1034.0715
2019-03-29T02:00:12.421Z,1034.08
2019-03-29T02:00:24.220Z,1034.0814
2019-03-29T02:00:36.245Z,1034.0629
2019-03-29T02:00:47.818Z,1034.0734
2019-03-29T02:00:59.611Z,1034.014
2019-03-29T02:01:11.397Z,1034.0533
2019-03-29T02:01:23.187Z,1034.0225
2019-03-29T02:01:34.988Z,1034.0405
2019-03-29T02:01:46.782Z,1034.0405
2019-03-29T02:01:58.577Z,1034.0371
2019-03-29T02:02:10.406Z,1034.0209
2019-03-29T02:02:22.209Z,1034.0502
2019-03-29T02:02:34.004Z,1034.0502
2019-03-29T02:02:46.207Z,1034.062
2019-03-29T02:02:58.636Z,1034.0029
2019-03-29T02:03:10.429Z,1034.0261
2019-03-29T02:03:22.226Z,1034.036
2019-03-29T02:03:34.025Z,1033.9849
2019-03-29T02:03:45.824Z,1034.0375
2019-03-29T02:03:57.618Z,1033.9965
2019-03-29T02:04:09.389Z,1034.0523
2019-03-29T02:04:21.186Z,1034.0231
2019-03-29T02:04:32.981Z,1034.013
2019-03-29T02:04:44.771Z,1034.0545
2019-03-29T02:04:56.578Z,1034.0675
2019-03-29T02:05:08.357Z,1034.0642
2019-03-29T02:05:21.148Z,1034.0378
2019-03-29T02:05:32.939Z,1034.0872
2019-03-29T02:05:44.725Z,1034.061
2019-03-29T02:05:56.519Z,1034.0512
2019-03-29T02:06:08.317Z,1034.033
2019-03-29T02:06:20.132Z,1034.028
2019-03-29T02:06:31.914Z,1034.0479
2019-03-29T02:06:45.082Z,1034.0526
2019-03-29T02:06:57.495Z,1034.0465
2019-03-29T02:07:09.290Z,1034.0628
2019-03-29T02:07:21.104Z,1034.0644
2019-03-29T02:07:32.888Z,1034.038
2019-03-29T02:07:44.739Z,1034.0379
2019-03-29T02:07:56.532Z,1034.0168
2019-03-29T02:08:08.337Z,1034.0415
2019-03-29T02:08:20.134Z,1034.0151
2019-03-29T02:08:35.810Z,1034.066
2019-03-29T02:08:44.650Z,1034.0297
2019-03-29T02:08:56.440Z,1034.0347
2019-03-29T02:09:08.238Z,1034.0628
2019-03-29T02:09:20.038Z,1034.023
2019-03-29T02:09:31.827Z,1034.0366
2019-03-29T02:09:43.619Z,1034.0545
2019-03-29T02:09:56.821Z,1034.0102
2019-03-29T02:10:08.195Z,1034.0001
2019-03-29T02:10:19.994Z,1034.0069
2019-03-29T02:10:31.798Z,1034.0201
2019-03-29T02:10:43.594Z,1034.0151
2019-03-29T02:10:55.394Z,1034.0001
2019-03-29T02:11:08.188Z,1034.0479
2019-03-29T02:11:19.982Z,1033.9901
2019-03-29T02:11:31.773Z,1034.0034
2019-03-29T02:11:43.564Z,1034.0249
2019-03-29T02:11:55.355Z,1034.0396
2019-03-29T02:12:07.362Z,1034.0347
2019-03-29T02:12:18.944Z,1033.9918
2019-03-29T02:12:30.738Z,1034.0213
2019-03-29T02:12:42.565Z,1034.005
2019-03-29T02:12:54.357Z,1034.0166
2019-03-29T02:13:06.152Z,1034.0001
2019-03-29T02:13:17.938Z,1033.9968
2019-03-29T02:13:29.741Z,1034.0146
2019-03-29T02:13:41.541Z,1033.9801
2019-03-29T02:13:53.365Z,1033.9932
2019-03-29T02:14:06.152Z,1033.9833
2019-03-29T02:14:18.088Z,1033.9849
2019-03-29T02:14:29.750Z,1034.02
2019-03-29T02:14:41.544Z,1033.9948
2019-03-29T02:14:53.348Z,1033.9884
2019-03-29T02:15:05.139Z,1034.0159
2019-03-29T02:15:16.923Z,1033.9686
2019-03-29T02:15:29.714Z,1033.9719
2019-03-29T02:15:41.514Z,1033.9619
2019-03-29T02:15:53.312Z,1033.9437